Parkfield, California
Current Conditions -  °F | °C
As of 12:53 PM on Saturday 22 Nov 2014 (Local Time) from KPRB Reporting Station
Clear Clear  
Wind Chill: 68°   Ceiling: Unl
Heat Index: 68°   Visibility: 10mi
Dew Point: 46°   Wind: 3mph
Humidity: 45%   Direction: 360°N
Pressure: 30.13"   Gusts: NA
Location:  35.7552°N, 120.63°W
Report Text: KPRB 222053Z AUTO 36003KT 10SM CLR 20/08 A3013 RMK AO2 SLP199 T02000078 58022 TSNO
Loading
Personal Weather Stations






























Interactive Weather Map New forecast layout! Learn more

10-Day Weather Forecast

Advertisements
Track Severe Weather on mobile